Globe, Arizona
Current Conditions -  °F | °C
As of 8:47 PM on Saturday 25 Oct 2014 (Local Time) from KIWA Reporting Station
Few Clouds Few Clouds  
Wind Chill: 25°   Ceiling: Unl
Heat Index: 26°   Visibility: 20mi
Dew Point: 13°   Wind: 0mph
Humidity: 47%   Direction: NA
Pressure: 29.94"   Gusts: NA
Location:  33.4°N, 110.78°W
Report Text: KIWA 260347Z 00000KT 20SM FEW200 25/13 A2994
Loading
Personal Weather Stations






























Interactive Weather Map
Tropical Storm Tracking
New forecast layout! Learn more

10-Day Weather Forecast

Advertisements
Track Severe Weather on mobile